Terminal Aerodrome Forecast
Issued by NWS Detroit/Pontiac, MI

Home | Current Version | Previous Version | Text Only | Print | Product List | Glossary On
Versions: 1 2 3 4 5 6 7 8 9 10 11 12 13 14 15 16 17
949
FTUS43 KDTX 081132
TAFFNT
TAF
KFNT 081132Z 0812/0912 25007KT P6SM SCT040 BKN120
     FM081500 28007KT P6SM BKN025
     FM090100 30007KT 6SM -SHSN OVC025
     FM090700 27005KT 4SM -SHSN BR OVC015=

USA.gov is the U.S. government's official web portal to all federal, state and local government web resources and services.